createdAt,value
2023-03-26T00:01:55.724Z,16.25
2023-03-26T00:04:25.680Z,17.27
2023-03-26T00:06:54.419Z,16.05
2023-03-26T00:09:22.411Z,17.33
2023-03-26T00:11:50.421Z,17.90
2023-03-26T00:14:18.283Z,18.50
2023-03-26T00:16:47.857Z,18.20
2023-03-26T00:19:17.164Z,19.95
2023-03-26T00:21:45.051Z,20.63
2023-03-26T00:24:15.547Z,19.58
2023-03-26T00:26:43.812Z,19.65
2023-03-26T00:29:14.014Z,19.98
2023-03-26T00:31:46.659Z,18.65
2023-03-26T00:34:18.757Z,19.27
2023-03-26T00:36:47.333Z,19.60
2023-03-26T00:39:15.504Z,19.95
2023-03-26T00:41:44.729Z,19.52
2023-03-26T00:44:12.717Z,19.98
2023-03-26T00:46:40.973Z,20.33
2023-03-26T00:49:11.186Z,19.55
2023-03-26T00:51:39.622Z,19.38
2023-03-26T00:54:08.804Z,19.40
2023-03-26T00:56:37.198Z,17.70
2023-03-26T00:59:05.189Z,18.58
2023-03-26T01:01:33.253Z,16.73
2023-03-26T01:04:21.308Z,17.55
2023-03-26T01:06:49.350Z,15.88
2023-03-26T01:09:22.366Z,16.30
2023-03-26T01:11:50.461Z,15.23
2023-03-26T01:14:24.070Z,16.10
2023-03-26T01:16:58.495Z,15.63
2023-03-26T01:21:53.985Z,16.45
2023-03-26T01:24:22.366Z,16.88
2023-03-26T01:27:17.949Z,16.13
2023-03-26T01:30:11.509Z,16.70
2023-03-26T01:33:14.618Z,16.20
2023-03-26T01:35:46.360Z,16.38
2023-03-26T01:38:33.262Z,16.52
2023-03-26T01:41:09.828Z,17.88
2023-03-26T01:43:43.028Z,17.63
2023-03-26T01:48:43.111Z,16.42
2023-03-26T01:51:13.360Z,17.73
2023-03-26T01:53:45.275Z,18.63
2023-03-26T01:56:31.668Z,17.55
2023-03-26T01:59:30.084Z,16.92
2023-03-26T02:02:15.223Z,17.10
2023-03-26T02:05:05.291Z,18.10
2023-03-26T02:07:38.402Z,17.73
2023-03-26T02:10:16.004Z,16.58
2023-03-26T02:12:45.097Z,17.75
2023-03-26T02:15:13.192Z,17.83
2023-03-26T02:17:41.106Z,17.00
2023-03-26T02:20:14.723Z,16.92
2023-03-26T02:22:46.059Z,18.15
2023-03-26T02:25:19.972Z,16.75
2023-03-26T02:30:26.088Z,16.85
2023-03-26T02:32:59.592Z,16.35
2023-03-26T02:35:34.780Z,17.48
2023-03-26T02:38:04.112Z,17.85
2023-03-26T02:40:31.919Z,19.88
2023-03-26T02:43:00.963Z,17.10
2023-03-26T02:45:31.787Z,17.73
2023-03-26T02:48:05.963Z,18.02
2023-03-26T02:50:54.694Z,18.08
2023-03-26T02:53:44.241Z,18.35
2023-03-26T02:56:41.215Z,17.75
2023-03-26T02:59:32.021Z,17.88
2023-03-26T03:02:20.664Z,17.60
2023-03-26T03:04:48.631Z,18.48
2023-03-26T03:07:16.559Z,18.45
2023-03-26T03:09:44.539Z,18.08
2023-03-26T03:12:47.409Z,17.85
2023-03-26T03:15:15.351Z,17.70
2023-03-26T03:17:43.656Z,17.63
2023-03-26T03:20:11.825Z,15.88
2023-03-26T03:22:41.019Z,16.40
2023-03-26T03:25:09.373Z,15.27
2023-03-26T03:27:39.676Z,15.70
2023-03-26T03:30:13.761Z,15.18
2023-03-26T03:32:47.756Z,16.73
2023-03-26T03:35:20.670Z,16.23
2023-03-26T03:37:52.544Z,14.82
2023-03-26T03:40:20.408Z,15.35
2023-03-26T03:42:48.387Z,16.08
2023-03-26T03:45:24.336Z,16.27
2023-03-26T03:48:08.028Z,16.42
2023-03-26T03:50:45.479Z,17.50
2023-03-26T03:53:26.384Z,17.75
2023-03-26T03:55:56.996Z,16.10
2023-03-26T03:58:35.052Z,16.83
2023-03-26T04:01:13.750Z,18.15
2023-03-26T04:03:56.140Z,17.67
2023-03-26T04:06:30.532Z,17.42
2023-03-26T04:08:58.433Z,17.88
2023-03-26T04:11:26.872Z,16.58
2023-03-26T04:14:17.928Z,18.42
2023-03-26T04:16:57.849Z,17.60
2023-03-26T04:19:28.453Z,16.75
2023-03-26T04:21:56.397Z,17.25
2023-03-26T04:24:24.958Z,18.67
2023-03-26T04:27:27.459Z,19.13
2023-03-26T04:30:05.629Z,18.52
2023-03-26T04:32:34.864Z,18.95
2023-03-26T04:35:04.322Z,18.92
2023-03-26T04:37:41.383Z,19.23
2023-03-26T04:40:22.152Z,18.30
2023-03-26T04:43:12.863Z,20.45
2023-03-26T04:46:02.463Z,18.60
2023-03-26T04:48:32.872Z,17.45
2023-03-26T04:51:01.555Z,17.02
2023-03-26T04:53:29.486Z,18.33
2023-03-26T04:56:25.093Z,15.40
2023-03-26T04:59:20.296Z,16.08
2023-03-26T05:01:49.368Z,13.70
2023-03-26T05:04:18.740Z,14.32
2023-03-26T05:06:47.378Z,13.70
2023-03-26T05:09:33.414Z,14.57
2023-03-26T05:12:12.640Z,14.48
2023-03-26T05:14:52.457Z,15.18
2023-03-26T05:17:41.735Z,15.20
2023-03-26T05:20:24.283Z,15.48
2023-03-26T05:22:53.172Z,14.80
2023-03-26T05:25:27.825Z,15.43
2023-03-26T05:27:57.063Z,16.05
2023-03-26T05:30:29.443Z,15.35
2023-03-26T05:33:04.618Z,14.75
2023-03-26T05:35:41.919Z,16.25
2023-03-26T05:38:10.993Z,15.68
2023-03-26T05:40:39.101Z,16.20
2023-03-26T05:43:08.537Z,15.77
2023-03-26T05:45:39.477Z,15.30
2023-03-26T05:48:29.546Z,16.38
2023-03-26T05:50:58.899Z,16.38
2023-03-26T05:53:29.359Z,17.25
2023-03-26T05:56:15.939Z,17.27
2023-03-26T05:59:02.595Z,18.08
2023-03-26T06:02:02.766Z,18.75
2023-03-26T06:04:49.366Z,20.75
2023-03-26T06:07:52.458Z,20.92
2023-03-26T06:10:21.095Z,18.88
2023-03-26T06:12:50.110Z,20.52
2023-03-26T06:15:19.072Z,19.92
2023-03-26T06:18:07.221Z,20.48
2023-03-26T06:20:59.135Z,20.35
2023-03-26T06:23:41.145Z,19.07
2023-03-26T06:26:32.702Z,20.17
2023-03-26T06:29:19.257Z,20.05
2023-03-26T06:31:49.985Z,20.17
2023-03-26T06:34:33.725Z,20.63
2023-03-26T06:37:01.698Z,19.90
2023-03-26T06:39:30.886Z,20.48
2023-03-26T06:42:20.997Z,19.40
2023-03-26T06:45:51.874Z,17.65
2023-03-26T06:48:39.822Z,17.88
2023-03-26T06:51:18.866Z,17.60
2023-03-26T06:54:16.905Z,16.25
2023-03-26T06:56:52.404Z,15.95
2023-03-26T06:59:26.378Z,15.32
2023-03-26T07:02:13.038Z,15.52
2023-03-26T07:04:59.657Z,15.07
2023-03-26T07:07:46.793Z,15.10
2023-03-26T07:10:34.029Z,14.15
2023-03-26T07:13:25.521Z,14.45
2023-03-26T07:16:12.360Z,15.32
2023-03-26T07:19:16.020Z,18.23
2023-03-26T07:21:44.401Z,13.73
2023-03-26T07:24:32.636Z,14.35
2023-03-26T07:27:11.215Z,15.02
2023-03-26T07:29:50.819Z,14.02
2023-03-26T07:32:52.163Z,14.35
2023-03-26T07:36:05.202Z,14.05
2023-03-26T07:39:19.389Z,14.57
2023-03-26T07:42:32.907Z,16.33
2023-03-26T07:45:40.072Z,13.48
2023-03-26T07:48:40.997Z,14.20
2023-03-26T07:51:18.939Z,13.05
2023-03-26T07:53:54.378Z,13.52
2023-03-26T07:56:56.541Z,15.52
2023-03-26T07:59:52.808Z,14.63
2023-03-26T08:06:03.892Z,13.30
2023-03-26T08:08:59.603Z,13.68
2023-03-26T08:12:14.183Z,9.02
2023-03-26T08:14:47.916Z,8.95
2023-03-26T08:17:43.044Z,8.02
2023-03-26T08:20:28.507Z,7.20
2023-03-26T08:23:02.596Z,7.32
2023-03-26T08:25:45.805Z,6.63
2023-03-26T08:28:30.874Z,7.00
2023-03-26T08:30:59.078Z,6.18
2023-03-26T08:33:28.292Z,6.30
2023-03-26T08:35:56.502Z,7.03
2023-03-26T08:38:24.501Z,7.05
2023-03-26T08:41:17.307Z,6.55
2023-03-26T08:44:03.643Z,7.15
2023-03-26T08:46:52.697Z,6.40
2023-03-26T08:49:41.643Z,6.35
2023-03-26T08:52:31.324Z,6.50
2023-03-26T08:55:17.806Z,6.00
2023-03-26T08:58:10.744Z,6.13
2023-03-26T09:01:12.530Z,6.07
2023-03-26T09:03:59.176Z,5.00
2023-03-26T09:07:07.371Z,5.65
2023-03-26T09:09:50.968Z,4.82
2023-03-26T09:14:59.082Z,2.67
2023-03-26T09:18:08.382Z,3.00
2023-03-26T09:21:12.693Z,2.28
2023-03-26T09:23:52.939Z,2.75
2023-03-26T09:26:36.273Z,35.50
2023-03-26T09:32:24.029Z,3.80
2023-03-26T09:35:13.094Z,2.72
2023-03-26T09:38:00.875Z,57.70
2023-03-26T09:41:06.386Z,3.00
2023-03-26T09:43:56.361Z,2.70
2023-03-26T09:46:42.363Z,2.47
2023-03-26T09:49:44.540Z,3.75
2023-03-26T09:52:27.597Z,2.60
2023-03-26T09:55:01.774Z,3.22
2023-03-26T09:57:58.706Z,2.35
2023-03-26T10:00:29.810Z,2.72
2023-03-26T10:03:31.828Z,3.20
2023-03-26T10:06:07.277Z,2.60
2023-03-26T10:09:04.395Z,3.65
2023-03-26T10:11:56.913Z,2.67
2023-03-26T10:15:02.411Z,2.80
2023-03-26T10:17:57.697Z,2.80
2023-03-26T10:20:35.718Z,3.08
2023-03-26T10:23:08.067Z,4.00
2023-03-26T10:25:57.240Z,6.97
2023-03-26T10:28:44.243Z,3.22
2023-03-26T10:31:43.006Z,4.28
2023-03-26T10:34:38.168Z,2.60
2023-03-26T10:37:20.619Z,2.85
2023-03-26T10:40:17.771Z,3.45
2023-03-26T10:43:24.435Z,2.92
2023-03-26T10:46:04.142Z,3.60
2023-03-26T10:48:47.879Z,4.65
2023-03-26T10:51:36.702Z,4.30
2023-03-26T10:54:26.449Z,4.40
2023-03-26T10:56:56.557Z,4.57
2023-03-26T10:59:27.960Z,5.30
2023-03-26T11:02:14.413Z,4.45
2023-03-26T11:05:16.661Z,4.88
2023-03-26T11:07:59.501Z,4.15
2023-03-26T11:10:53.776Z,4.80
2023-03-26T11:13:42.546Z,24.45
2023-03-26T11:16:47.556Z,6.10
2023-03-26T11:19:38.783Z,3.80
2023-03-26T11:22:32.478Z,4.30
2023-03-26T11:25:24.129Z,4.28
2023-03-26T11:28:09.503Z,4.03
2023-03-26T11:30:49.378Z,3.92
2023-03-26T11:33:26.267Z,4.10
2023-03-26T11:38:37.607Z,3.80
2023-03-26T11:41:22.963Z,3.92
2023-03-26T11:44:15.978Z,3.33
2023-03-26T11:46:46.936Z,3.45
2023-03-26T11:49:21.149Z,3.40
2023-03-26T11:51:49.375Z,3.30
2023-03-26T11:54:18.208Z,2.90
2023-03-26T11:57:07.210Z,2.65
2023-03-26T11:59:57.611Z,3.75
2023-03-26T12:02:34.369Z,3.40
2023-03-26T12:05:20.606Z,3.15
2023-03-26T12:08:04.671Z,2.90
2023-03-26T12:10:39.412Z,3.78
2023-03-26T12:13:42.375Z,3.47
2023-03-26T12:16:17.420Z,3.08
2023-03-26T12:18:57.702Z,3.30
2023-03-26T12:21:26.114Z,3.58
2023-03-26T12:24:02.743Z,3.17
2023-03-26T12:26:42.236Z,3.47
2023-03-26T12:29:16.680Z,2.75
2023-03-26T12:32:04.222Z,2.78
2023-03-26T12:34:37.666Z,3.90
2023-03-26T12:37:07.963Z,3.13
2023-03-26T12:40:10.665Z,2.50
2023-03-26T12:44:44.825Z,2.60
2023-03-26T12:45:31.196Z,2.90
2023-03-26T12:48:03.793Z,2.92
2023-03-26T12:50:47.951Z,3.05
2023-03-26T12:53:52.925Z,2.75
2023-03-26T12:56:37.178Z,2.97
2023-03-26T12:59:24.008Z,2.45
2023-03-26T13:02:16.232Z,2.97
2023-03-26T13:05:12.218Z,2.88
2023-03-26T13:08:18.836Z,2.75
2023-03-26T13:11:17.454Z,2.83
2023-03-26T13:14:17.804Z,2.75
2023-03-26T13:17:16.787Z,3.30
2023-03-26T13:20:02.722Z,2.83
2023-03-26T13:22:45.197Z,2.70
2023-03-26T13:25:19.428Z,3.33
2023-03-26T13:28:13.694Z,2.88
2023-03-26T13:30:54.135Z,2.92
2023-03-26T13:33:41.200Z,3.17
2023-03-26T13:36:34.086Z,3.35
2023-03-26T13:39:03.775Z,3.10
2023-03-26T13:42:26.941Z,3.22
2023-03-26T13:45:05.314Z,4.60
2023-03-26T13:47:42.821Z,3.17
2023-03-26T13:50:27.774Z,3.30
2023-03-26T13:53:28.895Z,6.50
2023-03-26T13:56:00.915Z,4.60
2023-03-26T13:58:47.665Z,6.32
2023-03-26T14:01:21.987Z,3.22
2023-03-26T14:03:56.094Z,3.50
2023-03-26T14:06:42.531Z,4.28
2023-03-26T14:09:24.793Z,4.00
2023-03-26T14:12:22.262Z,4.55
2023-03-26T14:14:59.308Z,4.45
2023-03-26T14:17:46.829Z,5.18
2023-03-26T14:20:48.641Z,4.60
2023-03-26T14:23:16.605Z,5.10
2023-03-26T14:26:14.464Z,4.60
2023-03-26T14:29:03.575Z,5.00
2023-03-26T14:31:43.970Z,6.20
2023-03-26T14:34:29.256Z,5.45
2023-03-26T14:37:27.562Z,5.00
2023-03-26T14:40:21.595Z,4.68
2023-03-26T14:43:24.506Z,4.97
2023-03-26T14:45:59.757Z,5.05
2023-03-26T14:48:36.923Z,5.70
2023-03-26T14:51:26.513Z,5.47
2023-03-26T14:54:01.257Z,5.28
2023-03-26T14:56:51.277Z,4.78
2023-03-26T14:59:53.251Z,6.55
2023-03-26T15:03:07.757Z,4.95
2023-03-26T15:05:48.377Z,4.28
2023-03-26T15:08:40.941Z,5.13
2023-03-26T15:11:26.461Z,5.75
2023-03-26T15:14:16.125Z,5.60
2023-03-26T15:17:12.813Z,4.90
2023-03-26T15:19:59.173Z,4.97
2023-03-26T15:22:42.159Z,5.10
2023-03-26T15:25:47.228Z,5.25
2023-03-26T15:28:21.039Z,5.88
2023-03-26T15:31:19.696Z,5.93
2023-03-26T15:34:23.496Z,6.22
2023-03-26T15:37:17.396Z,6.22
2023-03-26T15:40:10.068Z,7.15
2023-03-26T15:43:10.514Z,7.07
2023-03-26T15:45:56.756Z,6.57
2023-03-26T15:48:51.120Z,6.07
2023-03-26T15:51:46.871Z,7.40
2023-03-26T15:54:32.125Z,8.48
2023-03-26T15:57:31.987Z,7.82
2023-03-26T16:00:32.131Z,8.32
2023-03-26T16:03:11.941Z,7.97
2023-03-26T16:05:56.457Z,8.25
2023-03-26T16:08:47.288Z,8.65
2023-03-26T16:11:15.624Z,5.55
2023-03-26T16:14:08.578Z,3.80
2023-03-26T16:16:55.705Z,3.92
2023-03-26T16:19:23.480Z,4.70
2023-03-26T16:22:01.857Z,3.35
2023-03-26T16:24:36.310Z,2.65
2023-03-26T16:27:25.527Z,2.97
2023-03-26T16:30:30.673Z,3.03
2023-03-26T16:33:21.339Z,3.22
2023-03-26T16:36:34.770Z,4.05
2023-03-26T16:39:08.775Z,4.35
2023-03-26T16:41:39.425Z,4.13
2023-03-26T16:44:27.845Z,3.33
2023-03-26T16:47:39.099Z,3.25
2023-03-26T16:50:09.566Z,3.40
2023-03-26T16:52:55.096Z,4.07
2023-03-26T16:55:52.094Z,3.50
2023-03-26T16:58:44.746Z,3.33
2023-03-26T17:01:34.432Z,3.50
2023-03-26T17:04:12.980Z,3.10
2023-03-26T17:07:14.035Z,3.97
2023-03-26T17:10:09.112Z,3.30
2023-03-26T17:13:01.868Z,2.53
2023-03-26T17:15:29.998Z,2.90
2023-03-26T17:18:43.117Z,3.65
2023-03-26T17:21:16.712Z,2.45
2023-03-26T17:23:56.638Z,2.65
2023-03-26T17:26:32.791Z,2.92
2023-03-26T17:29:06.348Z,3.10
2023-03-26T17:34:34.136Z,3.03
2023-03-26T17:37:05.563Z,3.60
2023-03-26T17:39:39.641Z,2.28
2023-03-26T17:42:19.705Z,2.50
2023-03-26T17:45:36.411Z,2.85
2023-03-26T17:48:17.046Z,3.67
2023-03-26T17:51:30.053Z,3.20
2023-03-26T17:53:59.392Z,3.58
2023-03-26T17:56:32.643Z,2.92
2023-03-26T17:59:11.534Z,2.60
2023-03-26T18:01:44.441Z,2.20
2023-03-26T18:04:21.901Z,2.25
2023-03-26T18:07:17.645Z,2.47
2023-03-26T18:10:19.562Z,2.40
2023-03-26T18:13:15.928Z,2.90
2023-03-26T18:15:58.041Z,2.60
2023-03-26T18:18:34.925Z,2.30
2023-03-26T18:21:07.438Z,2.58
2023-03-26T18:23:42.759Z,2.20
2023-03-26T18:26:19.529Z,2.63
2023-03-26T18:29:09.128Z,2.35
2023-03-26T18:31:41.822Z,3.97
2023-03-26T18:34:19.675Z,3.15
2023-03-26T18:37:16.766Z,3.40
2023-03-26T18:39:57.841Z,3.70
2023-03-26T18:42:27.645Z,3.25
2023-03-26T18:44:59.926Z,2.92
2023-03-26T18:47:31.776Z,3.55
2023-03-26T18:50:00.558Z,3.05
2023-03-26T18:52:30.629Z,2.50
2023-03-26T18:55:00.144Z,3.42
2023-03-26T18:57:29.420Z,4.10
2023-03-26T19:00:15.865Z,3.97
2023-03-26T19:02:44.790Z,5.00
2023-03-26T19:05:22.049Z,6.10
2023-03-26T19:07:50.498Z,6.13
2023-03-26T19:10:21.650Z,6.65
2023-03-26T19:13:01.759Z,5.85
2023-03-26T19:15:35.634Z,5.28
2023-03-26T19:18:14.691Z,5.20
2023-03-26T19:20:46.339Z,5.00
2023-03-26T19:23:20.451Z,5.00
2023-03-26T19:25:55.126Z,5.43
2023-03-26T19:28:27.529Z,4.47
2023-03-26T19:30:58.542Z,5.10
2023-03-26T19:33:36.824Z,4.85
2023-03-26T19:36:06.662Z,4.97
2023-03-26T19:38:59.208Z,5.60
2023-03-26T19:41:36.053Z,5.28
2023-03-26T19:44:21.168Z,5.25
2023-03-26T19:46:53.929Z,4.88
2023-03-26T19:49:32.411Z,5.07
2023-03-26T19:52:11.436Z,5.97
2023-03-26T19:54:59.940Z,5.65
2023-03-26T19:57:34.904Z,5.65
2023-03-26T20:00:13.689Z,6.45
2023-03-26T20:02:43.888Z,6.10
2023-03-26T20:05:23.317Z,6.32
2023-03-26T20:07:52.425Z,6.63
2023-03-26T20:10:20.645Z,6.00
2023-03-26T20:12:48.639Z,5.82
2023-03-26T20:15:18.921Z,6.40
2023-03-26T20:17:50.353Z,6.97
2023-03-26T20:20:20.406Z,7.43
2023-03-26T20:22:48.445Z,7.05
2023-03-26T20:25:25.232Z,6.35
2023-03-26T20:27:55.834Z,6.93
2023-03-26T20:30:36.942Z,6.80
2023-03-26T20:33:12.867Z,6.85
2023-03-26T20:35:41.910Z,6.80
2023-03-26T20:38:10.537Z,7.28
2023-03-26T20:40:39.519Z,7.82
2023-03-26T20:43:18.723Z,7.53
2023-03-26T20:45:46.771Z,6.85
2023-03-26T20:48:14.919Z,6.65
2023-03-26T20:51:01.600Z,7.47
2023-03-26T20:53:30.707Z,7.72
2023-03-26T20:55:58.788Z,8.00
2023-03-26T20:58:30.986Z,7.28
2023-03-26T21:01:02.334Z,7.88
2023-03-26T21:03:30.673Z,8.13
2023-03-26T21:06:03.000Z,7.72
2023-03-26T21:08:34.510Z,7.80
2023-03-26T21:11:05.027Z,7.85
2023-03-26T21:13:54.563Z,9.27
2023-03-26T21:16:22.747Z,8.90
2023-03-26T21:18:51.843Z,9.38
2023-03-26T21:21:57.715Z,11.05
2023-03-26T21:24:34.042Z,11.35
2023-03-26T21:27:28.648Z,11.00
2023-03-26T21:29:58.331Z,10.80
2023-03-26T21:32:26.636Z,12.27
2023-03-26T21:34:58.983Z,12.30
2023-03-26T21:37:28.011Z,10.75
2023-03-26T21:39:56.193Z,9.65
2023-03-26T21:42:29.469Z,11.65
2023-03-26T21:44:57.722Z,11.35
2023-03-26T21:47:26.029Z,11.18
2023-03-26T21:49:55.035Z,10.25
2023-03-26T21:52:24.095Z,10.75
2023-03-26T21:54:52.512Z,9.93
2023-03-26T21:57:42.644Z,9.35
2023-03-26T22:00:15.337Z,9.90
2023-03-26T22:03:08.769Z,9.23
2023-03-26T22:06:06.230Z,9.15
2023-03-26T22:08:41.603Z,8.98
2023-03-26T22:11:11.686Z,8.73
2023-03-26T22:13:39.649Z,8.80
2023-03-26T22:16:10.874Z,9.73
2023-03-26T22:18:38.818Z,10.23
2023-03-26T22:21:07.310Z,10.43
2023-03-26T22:23:36.694Z,10.90
2023-03-26T22:26:06.122Z,11.25
2023-03-26T22:28:34.318Z,10.70
2023-03-26T22:31:07.487Z,9.88
2023-03-26T22:36:04.379Z,11.05
2023-03-26T22:38:32.304Z,11.35
2023-03-26T22:41:00.189Z,10.77
2023-03-26T22:43:28.454Z,11.18
2023-03-26T22:45:56.572Z,12.00
2023-03-26T22:48:24.627Z,11.60
2023-03-26T22:51:19.268Z,11.48
2023-03-26T22:53:47.572Z,11.32
2023-03-26T22:56:16.033Z,11.75
2023-03-26T22:58:43.955Z,10.82
2023-03-26T23:01:13.922Z,9.63
2023-03-26T23:03:41.847Z,11.10
2023-03-26T23:06:12.354Z,9.98
2023-03-26T23:08:40.683Z,10.63
2023-03-26T23:11:09.745Z,10.00
2023-03-26T23:13:37.611Z,9.85
2023-03-26T23:16:06.594Z,9.18
2023-03-26T23:18:34.633Z,9.10
2023-03-26T23:21:02.967Z,9.40
2023-03-26T23:23:34.000Z,8.25
2023-03-26T23:26:04.789Z,8.40
2023-03-26T23:28:34.175Z,8.48
2023-03-26T23:31:05.111Z,8.45
2023-03-26T23:33:35.655Z,8.57
2023-03-26T23:36:09.523Z,8.55
2023-03-26T23:38:44.115Z,7.18
2023-03-26T23:41:16.518Z,6.43
2023-03-26T23:43:54.145Z,6.10
2023-03-26T23:46:31.052Z,5.90
2023-03-26T23:49:03.628Z,5.55
2023-03-26T23:51:32.478Z,5.15
2023-03-26T23:54:01.090Z,3.65
2023-03-26T23:56:32.842Z,3.50
2023-03-26T23:59:00.997Z,3.95
